Archival Weather

Chicago O'Hare International

Chicago, Illinois (KORD)

Report from: Sunday, December 25, 2022 7:51 PM CST
Current time: Friday, June 14, 2024 7:27 AM CDT

Current weather – Weather history – Daily summaries
Weather forecast

Temperature-10.6°C (12.9°F)
Wind chill-16.3°C (2.6°F)
Dew point-15.6°C (3.9°F)
Winds 6 kts (3.1 m/s, 6.9 mph) West-Southwest (240°)
Visibility10 mi. (16.1 km)
Clouds Ceiling: Broken clouds 20,000 ft. (6,096 m)
Altimeter30.04 in.Hg (1017 mB)
Relative humidity67 %
Density altitude-3,363 ft. (-1,025 m)
Sea-level pressure101.9 kPa (1019 mB, 30.09 in.Hg)
Remarks System requires maintenance
Automated weather observing station with precipitation discriminator
Flight conditions Visual Meteorological Conditions
Raw dataKORD 260151Z 24006KT 10SM BKN200 M11/M16 A3004 RMK AO2 SLP188 T11061156 $
An error has occurred. This application may no longer respond until reloaded. Reload 🗙